sensor_id;sensor_type;location;lat;lon;timestamp;temperature;humidity
15133;DHT22;7667;51.232;17.110;2023-02-28T00:01:31;-0.10;99.90
15133;DHT22;7667;51.232;17.110;2023-02-28T00:03:59;-0.10;99.90
15133;DHT22;7667;51.232;17.110;2023-02-28T00:06:27;-0.20;99.90
15133;DHT22;7667;51.232;17.110;2023-02-28T00:08:55;-0.10;99.90
15133;DHT22;7667;51.232;17.110;2023-02-28T00:11:22;-0.20;99.90
15133;DHT22;7667;51.232;17.110;2023-02-28T00:13:50;-0.30;99.90
15133;DHT22;7667;51.232;17.110;2023-02-28T00:16:20;-0.30;99.90
15133;DHT22;7667;51.232;17.110;2023-02-28T00:18:50;-0.20;99.90
15133;DHT22;7667;51.232;17.110;2023-02-28T00:21:18;-0.20;99.90
15133;DHT22;7667;51.232;17.110;2023-02-28T00:23:47;-0.20;99.90
15133;DHT22;7667;51.232;17.110;2023-02-28T00:26:14;-0.20;99.90
15133;DHT22;7667;51.232;17.110;2023-02-28T00:28:42;-0.30;99.90
15133;DHT22;7667;51.232;17.110;2023-02-28T00:31:09;-0.30;99.90
15133;DHT22;7667;51.232;17.110;2023-02-28T00:33:37;-0.30;99.90
15133;DHT22;7667;51.232;17.110;2023-02-28T00:36:07;-0.20;99.90
15133;DHT22;7667;51.232;17.110;2023-02-28T00:38:37;-0.20;99.90
15133;DHT22;7667;51.232;17.110;2023-02-28T00:41:06;-0.20;99.90
15133;DHT22;7667;51.232;17.110;2023-02-28T00:43:35;-0.10;99.90
15133;DHT22;7667;51.232;17.110;2023-02-28T00:46:04;-0.10;99.90
15133;DHT22;7667;51.232;17.110;2023-02-28T00:48:32;-0.10;99.90
15133;DHT22;7667;51.232;17.110;2023-02-28T00:51:00;-0.10;99.90
15133;DHT22;7667;51.232;17.110;2023-02-28T00:53:28;-0.10;99.90
15133;DHT22;7667;51.232;17.110;2023-02-28T00:55:56;-0.10;99.90
15133;DHT22;7667;51.232;17.110;2023-02-28T00:58:23;-0.10;99.90
15133;DHT22;7667;51.232;17.110;2023-02-28T01:00:52;-0.20;99.90
15133;DHT22;7667;51.232;17.110;2023-02-28T01:03:21;-0.20;99.90
15133;DHT22;7667;51.232;17.110;2023-02-28T01:05:50;-0.20;99.90
15133;DHT22;7667;51.232;17.110;2023-02-28T01:08:20;-0.20;99.90
15133;DHT22;7667;51.232;17.110;2023-02-28T01:10:47;-0.20;99.90
15133;DHT22;7667;51.232;17.110;2023-02-28T01:13:15;-0.20;99.90
15133;DHT22;7667;51.232;17.110;2023-02-28T01:15:52;-0.20;99.90
15133;DHT22;7667;51.232;17.110;2023-02-28T01:18:21;-0.20;99.90
15133;DHT22;7667;51.232;17.110;2023-02-28T01:20:49;-0.20;99.90
15133;DHT22;7667;51.232;17.110;2023-02-28T01:23:20;-0.30;99.90
15133;DHT22;7667;51.232;17.110;2023-02-28T01:25:51;-0.30;99.90
15133;DHT22;7667;51.232;17.110;2023-02-28T01:28:19;-0.30;99.90
15133;DHT22;7667;51.232;17.110;2023-02-28T01:30:50;-0.30;99.90
15133;DHT22;7667;51.232;17.110;2023-02-28T01:33:18;-0.30;99.90
15133;DHT22;7667;51.232;17.110;2023-02-28T01:35:46;-0.30;99.90
15133;DHT22;7667;51.232;17.110;2023-02-28T01:38:14;-0.30;99.90
15133;DHT22;7667;51.232;17.110;2023-02-28T01:40:49;-0.30;99.90
15133;DHT22;7667;51.232;17.110;2023-02-28T01:45:51;-0.20;99.90
15133;DHT22;7667;51.232;17.110;2023-02-28T01:48:33;-0.20;99.90
15133;DHT22;7667;51.232;17.110;2023-02-28T01:51:08;-0.20;99.90
15133;DHT22;7667;51.232;17.110;2023-02-28T01:53:51;-0.20;99.90
15133;DHT22;7667;51.232;17.110;2023-02-28T01:56:26;-0.20;99.90
15133;DHT22;7667;51.232;17.110;2023-02-28T01:58:55;-0.20;99.90
15133;DHT22;7667;51.232;17.110;2023-02-28T02:01:25;-0.20;99.90
15133;DHT22;7667;51.232;17.110;2023-02-28T02:03:57;-0.20;99.90
15133;DHT22;7667;51.232;17.110;2023-02-28T02:06:40;-0.20;99.90
15133;DHT22;7667;51.232;17.110;2023-02-28T02:09:10;-0.20;99.90
15133;DHT22;7667;51.232;17.110;2023-02-28T02:11:40;-0.20;99.90
15133;DHT22;7667;51.232;17.110;2023-02-28T02:14:17;-0.20;99.90
15133;DHT22;7667;51.232;17.110;2023-02-28T02:17:30;-0.20;99.90
15133;DHT22;7667;51.232;17.110;2023-02-28T02:29:40;-0.20;99.90
15133;DHT22;7667;51.232;17.110;2023-02-28T02:35:52;-0.10;99.90
15133;DHT22;7667;51.232;17.110;2023-02-28T02:38:57;-0.20;99.90
15133;DHT22;7667;51.232;17.110;2023-02-28T02:41:39;-0.20;99.90
15133;DHT22;7667;51.232;17.110;2023-02-28T02:46:59;-0.30;99.90
15133;DHT22;7667;51.232;17.110;2023-02-28T02:49:42;-0.40;99.90
15133;DHT22;7667;51.232;17.110;2023-02-28T02:52:15;-0.50;99.90
15133;DHT22;7667;51.232;17.110;2023-02-28T02:54:46;-0.50;99.90
15133;DHT22;7667;51.232;17.110;2023-02-28T02:57:22;-0.50;99.90
15133;DHT22;7667;51.232;17.110;2023-02-28T02:59:54;-0.60;99.90
15133;DHT22;7667;51.232;17.110;2023-02-28T03:02:22;-0.60;99.90
15133;DHT22;7667;51.232;17.110;2023-02-28T03:04:56;-0.60;99.90
15133;DHT22;7667;51.232;17.110;2023-02-28T03:07:27;-0.60;99.90
15133;DHT22;7667;51.232;17.110;2023-02-28T03:09:56;-0.70;99.90
15133;DHT22;7667;51.232;17.110;2023-02-28T03:12:35;-0.70;99.90
15133;DHT22;7667;51.232;17.110;2023-02-28T03:15:50;-0.60;99.90
15133;DHT22;7667;51.232;17.110;2023-02-28T03:18:40;-0.50;99.90
15133;DHT22;7667;51.232;17.110;2023-02-28T03:21:43;-0.40;99.90
15133;DHT22;7667;51.232;17.110;2023-02-28T03:24:41;-0.30;99.90
15133;DHT22;7667;51.232;17.110;2023-02-28T03:32:38;-0.40;99.90
15133;DHT22;7667;51.232;17.110;2023-02-28T03:35:20;-0.50;99.90
15133;DHT22;7667;51.232;17.110;2023-02-28T03:37:58;-0.50;99.90
15133;DHT22;7667;51.232;17.110;2023-02-28T03:40:32;-0.60;99.90
15133;DHT22;7667;51.232;17.110;2023-02-28T03:43:04;-0.80;99.90
15133;DHT22;7667;51.232;17.110;2023-02-28T03:45:37;-0.80;99.90
15133;DHT22;7667;51.232;17.110;2023-02-28T03:48:31;-0.80;99.90
15133;DHT22;7667;51.232;17.110;2023-02-28T03:51:03;-0.80;99.90
15133;DHT22;7667;51.232;17.110;2023-02-28T03:53:47;-0.80;99.90
15133;DHT22;7667;51.232;17.110;2023-02-28T03:56:29;-0.70;99.90
15133;DHT22;7667;51.232;17.110;2023-02-28T03:59:02;-0.70;99.90
15133;DHT22;7667;51.232;17.110;2023-02-28T04:01:40;-0.80;99.90
15133;DHT22;7667;51.232;17.110;2023-02-28T04:04:10;-0.90;99.90
15133;DHT22;7667;51.232;17.110;2023-02-28T04:06:39;-0.80;99.90
15133;DHT22;7667;51.232;17.110;2023-02-28T04:09:08;-0.80;99.90
15133;DHT22;7667;51.232;17.110;2023-02-28T04:14:11;-0.60;99.90
15133;DHT22;7667;51.232;17.110;2023-02-28T04:16:40;-0.60;99.90
15133;DHT22;7667;51.232;17.110;2023-02-28T04:19:10;-0.70;99.90
15133;DHT22;7667;51.232;17.110;2023-02-28T04:21:42;-0.80;99.90
15133;DHT22;7667;51.232;17.110;2023-02-28T04:24:27;-0.90;99.90
15133;DHT22;7667;51.232;17.110;2023-02-28T04:26:56;-0.80;99.90
15133;DHT22;7667;51.232;17.110;2023-02-28T04:29:29;-0.80;99.90
15133;DHT22;7667;51.232;17.110;2023-02-28T04:32:00;-0.70;99.90
15133;DHT22;7667;51.232;17.110;2023-02-28T04:34:31;-0.60;99.90
15133;DHT22;7667;51.232;17.110;2023-02-28T04:36:59;-0.70;99.90
15133;DHT22;7667;51.232;17.110;2023-02-28T04:39:39;-0.80;99.90
15133;DHT22;7667;51.232;17.110;2023-02-28T04:42:07;-1.00;99.90
15133;DHT22;7667;51.232;17.110;2023-02-28T04:44:35;-1.10;99.90
15133;DHT22;7667;51.232;17.110;2023-02-28T04:47:02;-0.90;99.90
15133;DHT22;7667;51.232;17.110;2023-02-28T04:49:30;-0.80;99.90
15133;DHT22;7667;51.232;17.110;2023-02-28T04:51:57;-0.70;99.90
15133;DHT22;7667;51.232;17.110;2023-02-28T04:54:25;-0.70;99.90
15133;DHT22;7667;51.232;17.110;2023-02-28T04:56:52;-0.60;99.90
15133;DHT22;7667;51.232;17.110;2023-02-28T04:59:21;-0.60;99.90
15133;DHT22;7667;51.232;17.110;2023-02-28T05:01:49;-0.50;99.90
15133;DHT22;7667;51.232;17.110;2023-02-28T05:04:17;-0.50;99.90
15133;DHT22;7667;51.232;17.110;2023-02-28T05:06:44;-0.50;99.90
15133;DHT22;7667;51.232;17.110;2023-02-28T05:09:12;-0.60;99.90
15133;DHT22;7667;51.232;17.110;2023-02-28T05:11:41;-0.70;99.90
15133;DHT22;7667;51.232;17.110;2023-02-28T05:14:13;-0.60;99.90
15133;DHT22;7667;51.232;17.110;2023-02-28T05:16:41;-0.60;99.90
15133;DHT22;7667;51.232;17.110;2023-02-28T05:19:09;-0.80;99.90
15133;DHT22;7667;51.232;17.110;2023-02-28T05:21:39;-0.90;99.90
15133;DHT22;7667;51.232;17.110;2023-02-28T05:24:11;-0.90;99.90
15133;DHT22;7667;51.232;17.110;2023-02-28T05:26:42;-1.10;99.90
15133;DHT22;7667;51.232;17.110;2023-02-28T05:29:10;-1.10;99.90
15133;DHT22;7667;51.232;17.110;2023-02-28T05:31:37;-1.00;99.90
15133;DHT22;7667;51.232;17.110;2023-02-28T05:34:05;-1.10;99.90
15133;DHT22;7667;51.232;17.110;2023-02-28T05:36:33;-1.20;99.90
15133;DHT22;7667;51.232;17.110;2023-02-28T05:39:05;-1.20;99.90
15133;DHT22;7667;51.232;17.110;2023-02-28T05:41:34;-1.20;99.90
15133;DHT22;7667;51.232;17.110;2023-02-28T05:44:01;-1.10;99.90
15133;DHT22;7667;51.232;17.110;2023-02-28T05:46:29;-1.20;99.90
15133;DHT22;7667;51.232;17.110;2023-02-28T05:48:57;-1.10;99.90
15133;DHT22;7667;51.232;17.110;2023-02-28T05:51:27;-0.90;99.90
15133;DHT22;7667;51.232;17.110;2023-02-28T05:53:59;-0.80;99.90
15133;DHT22;7667;51.232;17.110;2023-02-28T05:56:27;-0.80;99.90
15133;DHT22;7667;51.232;17.110;2023-02-28T05:58:55;-1.00;99.90
15133;DHT22;7667;51.232;17.110;2023-02-28T06:01:35;-1.20;99.90
15133;DHT22;7667;51.232;17.110;2023-02-28T06:04:10;-1.50;99.90
15133;DHT22;7667;51.232;17.110;2023-02-28T06:06:55;-1.70;99.90
15133;DHT22;7667;51.232;17.110;2023-02-28T06:09:24;-2.00;99.90
15133;DHT22;7667;51.232;17.110;2023-02-28T06:11:52;-2.10;99.90
15133;DHT22;7667;51.232;17.110;2023-02-28T06:14:20;-2.20;99.90
15133;DHT22;7667;51.232;17.110;2023-02-28T06:16:48;-2.20;99.90
15133;DHT22;7667;51.232;17.110;2023-02-28T06:19:16;-2.40;99.90
15133;DHT22;7667;51.232;17.110;2023-02-28T06:21:44;-2.50;99.90
15133;DHT22;7667;51.232;17.110;2023-02-28T06:24:11;-2.50;99.90
15133;DHT22;7667;51.232;17.110;2023-02-28T06:26:39;-2.50;99.90
15133;DHT22;7667;51.232;17.110;2023-02-28T06:29:06;-2.50;99.90
15133;DHT22;7667;51.232;17.110;2023-02-28T06:31:34;-2.50;99.90
15133;DHT22;7667;51.232;17.110;2023-02-28T06:34:02;-2.20;99.90
15133;DHT22;7667;51.232;17.110;2023-02-28T06:36:29;-2.10;99.90
15133;DHT22;7667;51.232;17.110;2023-02-28T06:38:57;-2.00;99.90
15133;DHT22;7667;51.232;17.110;2023-02-28T06:41:25;-1.90;99.90
15133;DHT22;7667;51.232;17.110;2023-02-28T06:43:55;-2.00;99.90
15133;DHT22;7667;51.232;17.110;2023-02-28T06:46:23;-2.10;99.90
15133;DHT22;7667;51.232;17.110;2023-02-28T06:48:51;-2.10;99.90
15133;DHT22;7667;51.232;17.110;2023-02-28T06:51:19;-2.10;99.90
15133;DHT22;7667;51.232;17.110;2023-02-28T06:53:49;-2.10;99.90
15133;DHT22;7667;51.232;17.110;2023-02-28T06:56:17;-2.00;99.90
15133;DHT22;7667;51.232;17.110;2023-02-28T06:58:48;-1.90;99.90
15133;DHT22;7667;51.232;17.110;2023-02-28T07:01:17;-1.80;99.90
15133;DHT22;7667;51.232;17.110;2023-02-28T07:03:46;-1.70;99.90
15133;DHT22;7667;51.232;17.110;2023-02-28T07:06:13;-1.60;99.90
15133;DHT22;7667;51.232;17.110;2023-02-28T07:08:41;-1.50;99.90
15133;DHT22;7667;51.232;17.110;2023-02-28T07:11:09;-1.40;99.90
15133;DHT22;7667;51.232;17.110;2023-02-28T07:13:36;-1.40;99.90
15133;DHT22;7667;51.232;17.110;2023-02-28T07:16:06;-1.30;99.90
15133;DHT22;7667;51.232;17.110;2023-02-28T07:18:36;-1.30;99.90
15133;DHT22;7667;51.232;17.110;2023-02-28T07:21:06;-1.30;99.90
15133;DHT22;7667;51.232;17.110;2023-02-28T07:23:35;-1.20;99.90
15133;DHT22;7667;51.232;17.110;2023-02-28T07:26:12;-1.10;99.90
15133;DHT22;7667;51.232;17.110;2023-02-28T07:28:46;-1.00;99.90
15133;DHT22;7667;51.232;17.110;2023-02-28T07:31:15;-0.70;99.90
15133;DHT22;7667;51.232;17.110;2023-02-28T07:33:44;-0.50;99.90
15133;DHT22;7667;51.232;17.110;2023-02-28T07:36:16;-0.50;99.90
15133;DHT22;7667;51.232;17.110;2023-02-28T07:38:47;-0.30;99.90
15133;DHT22;7667;51.232;17.110;2023-02-28T07:41:19;-0.30;99.90
15133;DHT22;7667;51.232;17.110;2023-02-28T07:43:47;-0.20;99.90
15133;DHT22;7667;51.232;17.110;2023-02-28T07:46:16;-0.10;99.90
15133;DHT22;7667;51.232;17.110;2023-02-28T07:48:45;-0.10;99.90
15133;DHT22;7667;51.232;17.110;2023-02-28T07:51:12;0.10;99.90
15133;DHT22;7667;51.232;17.110;2023-02-28T07:53:40;0.10;99.90
15133;DHT22;7667;51.232;17.110;2023-02-28T07:56:07;0.20;99.90
15133;DHT22;7667;51.232;17.110;2023-02-28T07:58:35;0.30;99.90
15133;DHT22;7667;51.232;17.110;2023-02-28T08:01:10;0.40;99.90
15133;DHT22;7667;51.232;17.110;2023-02-28T08:03:39;0.50;99.90
15133;DHT22;7667;51.232;17.110;2023-02-28T08:06:11;0.50;99.90
15133;DHT22;7667;51.232;17.110;2023-02-28T08:08:46;0.50;99.90
15133;DHT22;7667;51.232;17.110;2023-02-28T08:11:14;0.60;99.90
15133;DHT22;7667;51.232;17.110;2023-02-28T08:13:43;0.70;99.90
15133;DHT22;7667;51.232;17.110;2023-02-28T08:16:12;0.70;99.90
15133;DHT22;7667;51.232;17.110;2023-02-28T08:18:44;0.80;99.90
15133;DHT22;7667;51.232;17.110;2023-02-28T08:21:12;0.90;99.90
15133;DHT22;7667;51.232;17.110;2023-02-28T08:23:39;1.10;99.90
15133;DHT22;7667;51.232;17.110;2023-02-28T08:26:07;1.20;99.90
15133;DHT22;7667;51.232;17.110;2023-02-28T08:28:34;1.40;99.90
15133;DHT22;7667;51.232;17.110;2023-02-28T08:31:07;1.60;99.90
15133;DHT22;7667;51.232;17.110;2023-02-28T08:33:37;1.60;99.90
15133;DHT22;7667;51.232;17.110;2023-02-28T08:36:07;1.60;99.90
15133;DHT22;7667;51.232;17.110;2023-02-28T08:38:36;1.60;99.90
15133;DHT22;7667;51.232;17.110;2023-02-28T08:41:06;1.70;99.90
15133;DHT22;7667;51.232;17.110;2023-02-28T08:43:36;1.70;99.90
15133;DHT22;7667;51.232;17.110;2023-02-28T08:46:04;1.80;99.90
15133;DHT22;7667;51.232;17.110;2023-02-28T08:48:33;1.90;99.90
15133;DHT22;7667;51.232;17.110;2023-02-28T08:51:05;2.10;99.90
15133;DHT22;7667;51.232;17.110;2023-02-28T08:53:37;2.20;99.90
15133;DHT22;7667;51.232;17.110;2023-02-28T08:56:11;2.30;99.90
15133;DHT22;7667;51.232;17.110;2023-02-28T08:58:40;2.30;99.90
15133;DHT22;7667;51.232;17.110;2023-02-28T09:01:19;2.20;99.90
15133;DHT22;7667;51.232;17.110;2023-02-28T09:03:50;1.90;99.90
15133;DHT22;7667;51.232;17.110;2023-02-28T09:06:21;1.70;99.90
15133;DHT22;7667;51.232;17.110;2023-02-28T09:08:50;1.50;99.90
15133;DHT22;7667;51.232;17.110;2023-02-28T09:11:18;1.50;99.90
15133;DHT22;7667;51.232;17.110;2023-02-28T09:13:46;1.70;99.90
15133;DHT22;7667;51.232;17.110;2023-02-28T09:16:15;1.70;99.90
15133;DHT22;7667;51.232;17.110;2023-02-28T09:18:44;1.70;99.90
15133;DHT22;7667;51.232;17.110;2023-02-28T09:21:14;1.80;99.90
15133;DHT22;7667;51.232;17.110;2023-02-28T09:23:45;1.80;99.90
15133;DHT22;7667;51.232;17.110;2023-02-28T09:26:19;1.90;99.90
15133;DHT22;7667;51.232;17.110;2023-02-28T09:29:04;2.00;99.90
15133;DHT22;7667;51.232;17.110;2023-02-28T09:31:32;2.00;99.90
15133;DHT22;7667;51.232;17.110;2023-02-28T09:34:00;2.10;99.90
15133;DHT22;7667;51.232;17.110;2023-02-28T09:36:28;2.10;99.90
15133;DHT22;7667;51.232;17.110;2023-02-28T09:39:10;2.40;99.90
15133;DHT22;7667;51.232;17.110;2023-02-28T09:41:42;2.70;99.90
15133;DHT22;7667;51.232;17.110;2023-02-28T09:47:17;3.10;99.90
15133;DHT22;7667;51.232;17.110;2023-02-28T09:49:49;3.00;99.90
15133;DHT22;7667;51.232;17.110;2023-02-28T09:52:20;2.90;99.90
15133;DHT22;7667;51.232;17.110;2023-02-28T09:54:50;3.00;99.90
15133;DHT22;7667;51.232;17.110;2023-02-28T09:57:50;3.30;99.90
15133;DHT22;7667;51.232;17.110;2023-02-28T10:00:32;3.40;99.90
15133;DHT22;7667;51.232;17.110;2023-02-28T10:08:38;3.00;99.90
15133;DHT22;7667;51.232;17.110;2023-02-28T10:11:16;3.00;99.90
15133;DHT22;7667;51.232;17.110;2023-02-28T10:16:54;2.70;99.90
15133;DHT22;7667;51.232;17.110;2023-02-28T10:19:33;2.40;99.90
15133;DHT22;7667;51.232;17.110;2023-02-28T10:22:19;2.40;99.90
15133;DHT22;7667;51.232;17.110;2023-02-28T10:24:51;2.40;99.90
15133;DHT22;7667;51.232;17.110;2023-02-28T10:27:25;2.40;99.90
15133;DHT22;7667;51.232;17.110;2023-02-28T10:29:59;2.50;99.90
15133;DHT22;7667;51.232;17.110;2023-02-28T10:32:31;2.60;99.90
15133;DHT22;7667;51.232;17.110;2023-02-28T10:37:40;2.40;99.90
15133;DHT22;7667;51.232;17.110;2023-02-28T10:43:17;2.40;99.90
15133;DHT22;7667;51.232;17.110;2023-02-28T10:45:59;2.90;99.90
15133;DHT22;7667;51.232;17.110;2023-02-28T10:51:00;4.30;99.90
15133;DHT22;7667;51.232;17.110;2023-02-28T10:53:34;4.90;99.90
15133;DHT22;7667;51.232;17.110;2023-02-28T10:56:26;5.40;99.90
15133;DHT22;7667;51.232;17.110;2023-02-28T11:01:43;6.00;99.20
15133;DHT22;7667;51.232;17.110;2023-02-28T11:06:58;6.50;93.00
15133;DHT22;7667;51.232;17.110;2023-02-28T11:09:35;6.80;96.20
15133;DHT22;7667;51.232;17.110;2023-02-28T11:12:10;7.10;94.50
15133;DHT22;7667;51.232;17.110;2023-02-28T11:15:00;7.50;92.10
15133;DHT22;7667;51.232;17.110;2023-02-28T11:17:32;7.60;89.10
15133;DHT22;7667;51.232;17.110;2023-02-28T11:20:05;7.40;90.10
15133;DHT22;7667;51.232;17.110;2023-02-28T11:22:37;6.20;91.40
15133;DHT22;7667;51.232;17.110;2023-02-28T11:25:21;5.20;92.20
15133;DHT22;7667;51.232;17.110;2023-02-28T11:28:00;4.50;93.40
15133;DHT22;7667;51.232;17.110;2023-02-28T11:30:37;4.10;93.70
15133;DHT22;7667;51.232;17.110;2023-02-28T11:35:51;3.50;96.80
15133;DHT22;7667;51.232;17.110;2023-02-28T11:38:19;3.40;99.50
15133;DHT22;7667;51.232;17.110;2023-02-28T11:47:52;3.30;99.50
15133;DHT22;7667;51.232;17.110;2023-02-28T11:50:40;3.40;98.10
15133;DHT22;7667;51.232;17.110;2023-02-28T11:53:30;3.30;97.30
15133;DHT22;7667;51.232;17.110;2023-02-28T12:05:28;3.50;97.40
15133;DHT22;7667;51.232;17.110;2023-02-28T12:17:13;3.90;95.60
15133;DHT22;7667;51.232;17.110;2023-02-28T12:28:17;6.00;91.70
15133;DHT22;7667;51.232;17.110;2023-02-28T12:33:35;8.00;82.50
15133;DHT22;7667;51.232;17.110;2023-02-28T12:36:12;7.80;76.20
15133;DHT22;7667;51.232;17.110;2023-02-28T12:38:49;7.00;78.90
15133;DHT22;7667;51.232;17.110;2023-02-28T12:44:25;7.40;78.80
15133;DHT22;7667;51.232;17.110;2023-02-28T12:47:00;6.70;79.10
15133;DHT22;7667;51.232;17.110;2023-02-28T12:49:37;6.80;79.30
15133;DHT22;7667;51.232;17.110;2023-02-28T12:52:10;7.00;77.40
15133;DHT22;7667;51.232;17.110;2023-02-28T12:54:47;8.10;79.80
15133;DHT22;7667;51.232;17.110;2023-02-28T12:57:50;9.00;75.90
15133;DHT22;7667;51.232;17.110;2023-02-28T13:00:32;8.20;70.10
15133;DHT22;7667;51.232;17.110;2023-02-28T13:06:17;6.70;78.80
15133;DHT22;7667;51.232;17.110;2023-02-28T13:11:39;7.30;74.00
15133;DHT22;7667;51.232;17.110;2023-02-28T13:22:43;9.70;71.60
15133;DHT22;7667;51.232;17.110;2023-02-28T13:28:01;9.20;70.60
15133;DHT22;7667;51.232;17.110;2023-02-28T13:33:29;9.60;71.40
15133;DHT22;7667;51.232;17.110;2023-02-28T13:36:25;10.30;69.60
15133;DHT22;7667;51.232;17.110;2023-02-28T13:39:00;11.20;65.80
15133;DHT22;7667;51.232;17.110;2023-02-28T13:44:08;10.60;60.40
15133;DHT22;7667;51.232;17.110;2023-02-28T14:06:35;6.70;74.10
15133;DHT22;7667;51.232;17.110;2023-02-28T14:15:36;6.00;75.40
15133;DHT22;7667;51.232;17.110;2023-02-28T14:20:49;6.40;73.90
15133;DHT22;7667;51.232;17.110;2023-02-28T14:23:32;6.50;73.80
15133;DHT22;7667;51.232;17.110;2023-02-28T14:29:58;6.30;73.40
15133;DHT22;7667;51.232;17.110;2023-02-28T14:39:20;6.40;74.70
15133;DHT22;7667;51.232;17.110;2023-02-28T14:41:49;6.60;73.20
15133;DHT22;7667;51.232;17.110;2023-02-28T14:46:59;6.80;73.50
15133;DHT22;7667;51.232;17.110;2023-02-28T14:49:57;6.90;71.70
15133;DHT22;7667;51.232;17.110;2023-02-28T14:52:27;6.70;72.60
15133;DHT22;7667;51.232;17.110;2023-02-28T14:55:04;6.50;72.70
15133;DHT22;7667;51.232;17.110;2023-02-28T14:57:40;6.40;74.50
15133;DHT22;7667;51.232;17.110;2023-02-28T15:02:59;6.30;73.50
15133;DHT22;7667;51.232;17.110;2023-02-28T15:05:30;6.60;74.70
15133;DHT22;7667;51.232;17.110;2023-02-28T15:08:11;6.60;74.50
15133;DHT22;7667;51.232;17.110;2023-02-28T15:13:48;6.20;75.20
15133;DHT22;7667;51.232;17.110;2023-02-28T15:19:01;6.10;76.00
15133;DHT22;7667;51.232;17.110;2023-02-28T15:21:33;6.00;77.80
15133;DHT22;7667;51.232;17.110;2023-02-28T15:26:57;6.10;79.10
15133;DHT22;7667;51.232;17.110;2023-02-28T15:29:27;6.40;77.50
15133;DHT22;7667;51.232;17.110;2023-02-28T15:32:07;6.50;76.50
15133;DHT22;7667;51.232;17.110;2023-02-28T15:34:41;6.40;77.00
15133;DHT22;7667;51.232;17.110;2023-02-28T15:39:56;5.80;76.40
15133;DHT22;7667;51.232;17.110;2023-02-28T15:42:29;5.80;78.50
15133;DHT22;7667;51.232;17.110;2023-02-28T15:44:58;5.90;80.60
15133;DHT22;7667;51.232;17.110;2023-02-28T15:47:28;5.80;80.20
15133;DHT22;7667;51.232;17.110;2023-02-28T15:50:02;5.40;80.80
15133;DHT22;7667;51.232;17.110;2023-02-28T15:52:45;5.10;82.90
15133;DHT22;7667;51.232;17.110;2023-02-28T15:55:29;4.80;86.50
15133;DHT22;7667;51.232;17.110;2023-02-28T15:58:00;4.30;89.70
15133;DHT22;7667;51.232;17.110;2023-02-28T16:00:30;4.00;92.30
15133;DHT22;7667;51.232;17.110;2023-02-28T16:02:59;3.50;94.80
15133;DHT22;7667;51.232;17.110;2023-02-28T16:05:30;3.10;99.90
15133;DHT22;7667;51.232;17.110;2023-02-28T16:08:01;2.70;99.90
15133;DHT22;7667;51.232;17.110;2023-02-28T16:10:38;2.30;99.90
15133;DHT22;7667;51.232;17.110;2023-02-28T16:13:06;2.00;99.90
15133;DHT22;7667;51.232;17.110;2023-02-28T16:15:42;1.80;99.90
15133;DHT22;7667;51.232;17.110;2023-02-28T16:18:13;1.50;99.90
15133;DHT22;7667;51.232;17.110;2023-02-28T16:20:41;1.40;99.90
15133;DHT22;7667;51.232;17.110;2023-02-28T16:23:08;1.20;99.90
15133;DHT22;7667;51.232;17.110;2023-02-28T16:25:41;1.10;99.90
15133;DHT22;7667;51.232;17.110;2023-02-28T16:28:35;1.00;99.90
15133;DHT22;7667;51.232;17.110;2023-02-28T16:31:06;0.90;99.90
15133;DHT22;7667;51.232;17.110;2023-02-28T16:33:34;0.80;99.90
15133;DHT22;7667;51.232;17.110;2023-02-28T16:36:02;0.60;99.90
15133;DHT22;7667;51.232;17.110;2023-02-28T16:38:30;0.40;99.90
15133;DHT22;7667;51.232;17.110;2023-02-28T16:40:59;0.30;99.90
15133;DHT22;7667;51.232;17.110;2023-02-28T16:43:27;0.20;99.90
15133;DHT22;7667;51.232;17.110;2023-02-28T16:45:58;0.10;99.90
15133;DHT22;7667;51.232;17.110;2023-02-28T16:48:27;0.00;99.90
15133;DHT22;7667;51.232;17.110;2023-02-28T16:50:55;-0.20;99.90
15133;DHT22;7667;51.232;17.110;2023-02-28T16:53:22;-0.30;99.90
15133;DHT22;7667;51.232;17.110;2023-02-28T16:55:49;-0.40;99.90
15133;DHT22;7667;51.232;17.110;2023-02-28T16:58:17;-0.40;99.90
15133;DHT22;7667;51.232;17.110;2023-02-28T17:00:48;-0.50;99.90
15133;DHT22;7667;51.232;17.110;2023-02-28T17:03:27;-0.60;99.90
15133;DHT22;7667;51.232;17.110;2023-02-28T17:06:00;-0.60;99.90
15133;DHT22;7667;51.232;17.110;2023-02-28T17:08:29;-0.70;99.90
15133;DHT22;7667;51.232;17.110;2023-02-28T17:10:59;-0.80;99.90
15133;DHT22;7667;51.232;17.110;2023-02-28T17:13:28;-0.80;99.90
15133;DHT22;7667;51.232;17.110;2023-02-28T17:15:56;-0.80;99.90
15133;DHT22;7667;51.232;17.110;2023-02-28T17:18:23;-0.80;99.90
15133;DHT22;7667;51.232;17.110;2023-02-28T17:20:51;-0.80;99.90
15133;DHT22;7667;51.232;17.110;2023-02-28T17:23:18;-0.90;99.90
15133;DHT22;7667;51.232;17.110;2023-02-28T17:25:46;-0.90;99.90
15133;DHT22;7667;51.232;17.110;2023-02-28T17:28:23;-1.00;99.90
15133;DHT22;7667;51.232;17.110;2023-02-28T17:30:51;-1.00;99.90
15133;DHT22;7667;51.232;17.110;2023-02-28T17:33:19;-1.10;99.90
15133;DHT22;7667;51.232;17.110;2023-02-28T17:35:46;-1.20;99.90
15133;DHT22;7667;51.232;17.110;2023-02-28T17:38:16;-1.20;99.90
15133;DHT22;7667;51.232;17.110;2023-02-28T17:40:45;-1.20;99.90
15133;DHT22;7667;51.232;17.110;2023-02-28T17:43:13;-1.20;99.90
15133;DHT22;7667;51.232;17.110;2023-02-28T17:45:41;-1.30;99.90
15133;DHT22;7667;51.232;17.110;2023-02-28T17:48:11;-1.40;99.90
15133;DHT22;7667;51.232;17.110;2023-02-28T17:50:39;-1.40;99.90
15133;DHT22;7667;51.232;17.110;2023-02-28T17:53:06;-1.50;99.90
15133;DHT22;7667;51.232;17.110;2023-02-28T17:55:34;-1.40;99.90
15133;DHT22;7667;51.232;17.110;2023-02-28T17:58:03;-1.40;99.90
15133;DHT22;7667;51.232;17.110;2023-02-28T18:00:30;-1.40;99.90
15133;DHT22;7667;51.232;17.110;2023-02-28T18:03:01;-1.40;99.90
15133;DHT22;7667;51.232;17.110;2023-02-28T18:05:28;-1.40;99.90
15133;DHT22;7667;51.232;17.110;2023-02-28T18:07:57;-1.30;99.90
15133;DHT22;7667;51.232;17.110;2023-02-28T18:10:25;-1.20;99.90
15133;DHT22;7667;51.232;17.110;2023-02-28T18:12:54;-1.30;99.90
15133;DHT22;7667;51.232;17.110;2023-02-28T18:15:22;-1.30;99.90
15133;DHT22;7667;51.232;17.110;2023-02-28T18:17:50;-1.30;99.90
15133;DHT22;7667;51.232;17.110;2023-02-28T18:20:18;-1.20;99.90
15133;DHT22;7667;51.232;17.110;2023-02-28T18:22:45;-1.30;99.90
15133;DHT22;7667;51.232;17.110;2023-02-28T18:25:13;-1.40;99.90
15133;DHT22;7667;51.232;17.110;2023-02-28T18:27:44;-1.50;99.90
15133;DHT22;7667;51.232;17.110;2023-02-28T18:30:21;-1.50;99.90
15133;DHT22;7667;51.232;17.110;2023-02-28T18:32:48;-1.60;99.90
15133;DHT22;7667;51.232;17.110;2023-02-28T18:35:16;-1.60;99.90
15133;DHT22;7667;51.232;17.110;2023-02-28T18:40:30;-1.70;99.90
15133;DHT22;7667;51.232;17.110;2023-02-28T18:42:58;-1.80;99.90
15133;DHT22;7667;51.232;17.110;2023-02-28T18:45:26;-1.80;99.90
15133;DHT22;7667;51.232;17.110;2023-02-28T18:47:54;-1.70;99.90
15133;DHT22;7667;51.232;17.110;2023-02-28T18:50:22;-1.80;99.90
15133;DHT22;7667;51.232;17.110;2023-02-28T18:52:49;-1.80;99.90
15133;DHT22;7667;51.232;17.110;2023-02-28T18:55:17;-1.70;99.90
15133;DHT22;7667;51.232;17.110;2023-02-28T18:57:45;-1.70;99.90
15133;DHT22;7667;51.232;17.110;2023-02-28T19:00:15;-1.80;99.90
15133;DHT22;7667;51.232;17.110;2023-02-28T19:02:49;-1.90;99.90
15133;DHT22;7667;51.232;17.110;2023-02-28T19:05:17;-2.00;99.90